Time;durP1;ratioP1;P1;durP2;ratioP2;P2;SDS_P1;SDS_P2;PMS_P1;PMS_P2;Temp;Humidity;BMP_temperature;BMP_pressure;BME280_temperature;BME280_humidity;BME280_pressure;Samples;Min_cycle;Max_cycle;Signal;HPM_P1;HPM_P2
2023/10/22 00:00:34;;;;;;;41.17;28.30;;;;;;;10.15;100.00;99577.09;5051576;28;20565;-68
2023/10/22 00:03:03;;;;;;;37.57;26.57;;;;;;;10.13;100.00;99567.72;5051748;28;20206;-70
2023/10/22 00:05:31;;;;;;;43.77;28.40;;;;;;;10.16;100.00;99573.69;5051651;28;20198;-69
2023/10/22 00:07:59;;;;;;;38.25;27.00;;;;;;;10.15;100.00;99571.97;5050878;28;20267;-68
2023/10/22 00:10:27;;;;;;;41.50;26.70;;;;;;;10.14;100.00;99569.41;5051680;28;20198;-70
2023/10/22 00:12:55;;;;;;;41.30;26.97;;;;;;;10.12;100.00;99569.44;5050833;28;20194;-68
2023/10/22 00:15:25;;;;;;;43.60;26.53;;;;;;;10.11;100.00;99566.91;5051156;28;20206;-67
2023/10/22 00:17:53;;;;;;;44.63;27.30;;;;;;;10.10;100.00;99563.47;5051109;28;20206;-70
2023/10/22 00:20:23;;;;;;;39.20;25.43;;;;;;;10.11;100.00;99567.75;5051287;28;20225;-70
2023/10/22 00:22:51;;;;;;;38.87;26.10;;;;;;;10.16;100.00;99572.81;5050987;28;20256;-70
2023/10/22 00:25:19;;;;;;;35.90;25.53;;;;;;;10.18;100.00;99573.63;5050979;28;20213;-69
2023/10/22 00:27:50;;;;;;;34.47;23.73;;;;;;;10.15;100.00;99569.38;5051135;28;20217;-68
2023/10/22 00:30:19;;;;;;;40.17;25.00;;;;;;;10.22;100.00;99574.44;5051082;28;20282;-69
2023/10/22 00:32:47;;;;;;;38.27;25.63;;;;;;;10.23;100.00;99568.41;5051354;28;20627;-68
2023/10/22 00:35:15;;;;;;;37.20;25.07;;;;;;;10.27;100.00;99570.06;5051002;28;20209;-68
2023/10/22 00:37:45;;;;;;;34.70;24.53;;;;;;;10.33;100.00;99569.97;5051005;28;20240;-69
2023/10/22 00:40:14;;;;;;;38.77;24.80;;;;;;;10.34;100.00;99561.38;5051075;28;20198;-68
2023/10/22 00:42:43;;;;;;;39.83;25.33;;;;;;;10.36;99.77;99559.63;5050985;28;20216;-69
2023/10/22 00:45:11;;;;;;;33.93;24.40;;;;;;;10.37;99.91;99559.56;5050993;28;20234;-65
2023/10/22 00:47:39;;;;;;;34.87;23.53;;;;;;;10.39;99.18;99557.00;5050697;28;20214;-65
2023/10/22 00:50:07;;;;;;;32.13;22.50;;;;;;;10.39;98.76;99557.00;5050717;28;20595;-65
2023/10/22 00:52:35;;;;;;;34.93;22.53;;;;;;;10.40;98.68;99553.53;5050698;28;20243;-65
2023/10/22 00:55:06;;;;;;;35.00;22.73;;;;;;;10.37;98.78;99546.69;5050650;28;20207;-64
2023/10/22 00:57:36;;;;;;;34.43;23.40;;;;;;;10.38;98.22;99547.53;5050929;28;20599;-69
2023/10/22 01:00:06;;;;;;;35.40;24.70;;;;;;;10.36;98.16;99544.16;5050616;28;20206;-65
2023/10/22 01:02:35;;;;;;;33.93;22.87;;;;;;;10.33;97.79;99545.06;5050765;28;20236;-65
2023/10/22 01:05:05;;;;;;;37.00;23.43;;;;;;;10.30;97.43;99544.28;5050611;28;20201;-64
2023/10/22 01:07:33;;;;;;;31.33;22.10;;;;;;;10.23;97.23;99537.50;5049412;28;20217;-66
2023/10/22 01:10:02;;;;;;;34.57;22.93;;;;;;;10.19;97.07;99536.72;5050769;28;20226;-66
2023/10/22 01:12:35;;;;;;;35.93;24.17;;;;;;;10.12;97.38;99533.38;5049900;28;20202;-64
2023/10/22 01:15:04;;;;;;;31.70;22.30;;;;;;;10.10;97.37;99537.75;5050382;28;20241;-68
2023/10/22 01:17:32;;;;;;;34.80;22.67;;;;;;;10.09;97.76;99530.06;5050437;28;20263;-65
2023/10/22 01:20:00;;;;;;;33.73;23.23;;;;;;;10.06;97.74;99523.22;5050309;28;20210;-65
2023/10/22 01:22:28;;;;;;;30.77;22.47;;;;;;;10.03;97.76;99523.28;5050288;28;20202;-64
2023/10/22 01:24:57;;;;;;;29.67;21.50;;;;;;;10.01;97.78;99519.88;5053067;28;20279;-65
2023/10/22 01:27:25;;;;;;;29.63;21.57;;;;;;;10.00;98.07;99504.47;5054201;28;20208;-65
2023/10/22 01:29:53;;;;;;;27.83;19.97;;;;;;;10.00;97.88;99499.31;5054363;28;20233;-66
2023/10/22 01:32:21;;;;;;;28.40;21.20;;;;;;;10.01;97.61;99494.13;5054246;28;20236;-67
2023/10/22 01:34:49;;;;;;;29.13;20.03;;;;;;;9.98;98.09;99483.03;5054075;28;20205;-65
2023/10/22 01:37:18;;;;;;;28.13;20.80;;;;;;;9.97;98.02;99483.91;5054035;28;20208;-66
2023/10/22 01:39:45;;;;;;;27.67;20.03;;;;;;;9.95;98.06;99478.81;5055009;28;20646;-66
2023/10/22 01:42:15;;;;;;;27.00;20.83;;;;;;;9.95;98.40;99480.53;5057173;28;20680;-65
2023/10/22 01:44:43;;;;;;;28.17;20.60;;;;;;;9.93;98.40;99476.25;5053986;28;20205;-66
2023/10/22 01:47:11;;;;;;;30.47;19.53;;;;;;;9.94;98.51;99477.09;5054059;28;20308;-66
2023/10/22 01:49:39;;;;;;;26.80;19.93;;;;;;;9.93;98.29;99471.09;5053618;28;20229;-64
2023/10/22 01:52:07;;;;;;;28.80;20.77;;;;;;;9.94;98.49;99477.09;5053952;28;20665;-66
2023/10/22 01:54:36;;;;;;;27.77;20.20;;;;;;;9.95;98.40;99475.41;5053717;28;20327;-64
2023/10/22 01:57:04;;;;;;;28.03;20.23;;;;;;;9.93;98.71;99489.13;5053531;28;20653;-67
2023/10/22 01:59:34;;;;;;;24.90;18.47;;;;;;;9.96;98.92;99485.66;5052923;28;20289;-66
2023/10/22 02:02:02;;;;;;;25.47;18.87;;;;;;;9.99;98.97;99484.75;5053311;28;20730;-67
2023/10/22 02:04:30;;;;;;;27.20;19.60;;;;;;;10.00;98.56;99479.56;5053467;28;20204;-66
2023/10/22 02:06:58;;;;;;;26.07;19.67;;;;;;;10.01;98.84;99475.25;5053566;28;20244;-65
2023/10/22 02:09:26;;;;;;;26.20;18.70;;;;;;;9.98;98.74;99470.16;5053668;28;20273;-65
2023/10/22 02:11:55;;;;;;;27.27;19.83;;;;;;;9.97;98.93;99474.47;5053404;28;20256;-68
2023/10/22 02:14:23;;;;;;;26.00;18.73;;;;;;;9.97;99.04;99469.31;5053202;28;20257;-64
2023/10/22 02:16:52;;;;;;;24.73;19.13;;;;;;;9.97;99.03;99469.31;5053450;28;20205;-63
2023/10/22 02:19:21;;;;;;;24.90;19.07;;;;;;;9.95;99.16;99465.94;5053109;28;20293;-63
2023/10/22 02:21:49;;;;;;;25.63;18.03;;;;;;;9.96;99.40;99466.78;5052413;28;20209;-63
2023/10/22 02:24:17;;;;;;;22.33;16.73;;;;;;;9.97;99.43;99465.91;5053033;28;20198;-64
2023/10/22 02:26:45;;;;;;;22.73;16.97;;;;;;;9.95;99.50;99462.53;5053439;28;20602;-65
2023/10/22 02:29:13;;;;;;;23.80;17.70;;;;;;;9.96;99.92;99462.50;5053266;28;20248;-65
2023/10/22 02:31:42;;;;;;;20.93;17.00;;;;;;;9.97;99.85;99458.19;5052821;28;20236;-65
2023/10/22 02:34:12;;;;;;;24.23;16.97;;;;;;;9.98;99.97;99454.72;5053212;28;20206;-66
2023/10/22 02:36:39;;;;;;;21.80;16.60;;;;;;;10.00;100.00;99453.00;5052594;28;20681;-64
2023/10/22 02:39:08;;;;;;;23.50;17.33;;;;;;;10.03;100.00;99458.94;5052919;28;20202;-64
2023/10/22 02:41:36;;;;;;;20.13;16.00;;;;;;;10.06;100.00;99463.19;5052604;28;20288;-68
2023/10/22 02:44:04;;;;;;;21.30;16.13;;;;;;;10.03;100.00;99453.78;5052778;28;20209;-64
2023/10/22 02:46:32;;;;;;;20.37;16.33;;;;;;;10.07;99.95;99465.72;5053451;28;20566;-64
2023/10/22 02:49:01;;;;;;;20.73;16.07;;;;;;;10.09;100.00;99468.28;5053101;28;20298;-64
2023/10/22 02:51:30;;;;;;;20.73;17.13;;;;;;;10.10;99.99;99480.25;5052140;28;20688;-63
2023/10/22 02:53:58;;;;;;;19.03;15.43;;;;;;;10.07;100.00;99483.72;5052675;28;20277;-64
2023/10/22 02:56:26;;;;;;;20.13;15.63;;;;;;;10.06;100.00;99484.63;5052657;28;20229;-64
2023/10/22 02:58:54;;;;;;;21.03;16.60;;;;;;;10.07;100.00;99485.47;5052475;28;20198;-64
2023/10/22 03:01:23;;;;;;;19.03;15.43;;;;;;;10.09;100.00;99484.56;5052930;28;20652;-65
2023/10/22 03:03:51;;;;;;;20.73;15.17;;;;;;;10.08;100.00;99480.28;5052698;28;20680;-64
2023/10/22 03:06:20;;;;;;;22.00;15.60;;;;;;;10.12;100.00;99494.78;5052478;28;20210;-64
2023/10/22 03:08:49;;;;;;;18.63;14.83;;;;;;;10.09;100.00;99499.16;5052444;28;20289;-65
2023/10/22 03:11:19;;;;;;;20.03;15.43;;;;;;;10.13;100.00;99495.66;5052228;28;20222;-64
2023/10/22 03:13:47;;;;;;;18.30;15.23;;;;;;;10.12;100.00;99494.78;5052117;28;20252;-64
2023/10/22 03:16:15;;;;;;;16.53;13.87;;;;;;;10.16;100.00;99506.75;5052063;28;20198;-65
2023/10/22 03:18:45;;;;;;;18.30;14.43;;;;;;;10.20;100.00;99516.97;5052485;28;20209;-66
2023/10/22 03:21:16;;;;;;;16.80;12.97;;;;;;;10.22;100.00;99510.91;5051634;28;20263;-65
2023/10/22 03:23:45;;;;;;;14.50;12.13;;;;;;;10.24;100.00;99509.16;5052011;28;20692;-66
2023/10/22 03:26:16;;;;;;;13.37;11.17;;;;;;;10.27;100.00;99516.00;5051870;28;20219;-65
2023/10/22 03:28:45;;;;;;;14.13;10.77;;;;;;;10.30;100.00;99506.50;5051805;28;20202;-66
2023/10/22 03:31:13;;;;;;;12.17;10.53;;;;;;;10.34;100.00;99515.00;5051755;28;20221;-65
2023/10/22 03:33:41;;;;;;;13.20;10.03;;;;;;;10.35;100.00;99527.03;5051846;28;20209;-65
2023/10/22 03:36:11;;;;;;;11.33;9.83;;;;;;;10.35;100.00;99517.56;5051964;28;20202;-63
2023/10/22 03:38:39;;;;;;;10.93;9.17;;;;;;;10.36;100.00;99492.66;5051523;28;20202;-64
2023/10/22 03:41:08;;;;;;;9.23;8.33;;;;;;;10.32;100.00;99486.72;5051662;28;20665;-63
2023/10/22 03:43:38;;;;;;;11.30;8.70;;;;;;;10.40;100.00;99489.16;5051359;28;20256;-64
2023/10/22 03:46:05;;;;;;;9.80;8.20;;;;;;;10.40;100.00;99482.25;5051786;28;20210;-63
2023/10/22 03:48:34;;;;;;;8.60;7.57;;;;;;;10.37;100.00;99466.88;5051644;28;20202;-65
2023/10/22 03:51:03;;;;;;;8.57;6.87;;;;;;;10.37;100.00;99469.44;5051701;28;20712;-65
2023/10/22 03:53:32;;;;;;;9.73;7.07;;;;;;;10.31;100.00;99461.88;5051499;28;20206;-65
2023/10/22 03:56:01;;;;;;;8.37;7.00;;;;;;;10.26;100.00;99452.50;5051611;28;20551;-65
2023/10/22 03:58:29;;;;;;;7.33;6.40;;;;;;;10.23;100.00;99444.81;5051452;28;20206;-66
2023/10/22 04:00:58;;;;;;;7.80;5.60;;;;;;;10.20;100.00;99450.91;5051211;28;20292;-69
2023/10/22 04:03:26;;;;;;;6.33;5.60;;;;;;;10.23;100.00;99468.00;5051369;28;20233;-66
2023/10/22 04:05:56;;;;;;;7.03;6.07;;;;;;;10.21;100.00;99456.88;5051182;28;20202;-64
2023/10/22 04:08:25;;;;;;;6.37;5.63;;;;;;;10.20;100.00;99455.16;5051789;28;20260;-65
2023/10/22 04:10:53;;;;;;;8.13;6.20;;;;;;;10.16;100.00;99452.69;5051218;28;20650;-63
2023/10/22 04:13:22;;;;;;;5.90;5.30;;;;;;;10.16;100.00;99450.09;5050443;28;20265;-65
2023/10/22 04:15:51;;;;;;;7.80;5.40;;;;;;;10.17;100.00;99450.94;5055855;28;20210;-68
2023/10/22 04:18:21;;;;;;;7.00;5.83;;;;;;;10.18;100.00;99433.78;5037198;28;20198;-64
2023/10/22 04:20:51;;;;;;;6.43;5.57;;;;;;;10.19;100.00;99423.44;5051442;28;20608;-65
2023/10/22 04:23:19;;;;;;;5.40;4.90;;;;;;;10.24;100.00;99428.50;5051037;28;20202;-67
2023/10/22 04:25:48;;;;;;;6.73;4.70;;;;;;;10.20;100.00;99424.28;5051054;28;20213;-65
2023/10/22 04:28:16;;;;;;;5.77;5.17;;;;;;;10.26;100.00;99419.88;5051295;28;20726;-68
2023/10/22 04:30:44;;;;;;;5.37;4.80;;;;;;;10.28;100.00;99427.59;5050982;28;20218;-65
2023/10/22 04:33:13;;;;;;;6.07;4.43;;;;;;;10.28;100.00;99396.69;5051008;28;20202;-66
2023/10/22 04:35:42;;;;;;;7.10;4.07;;;;;;;10.31;100.00;99409.50;5051051;28;20202;-67
2023/10/22 04:38:13;;;;;;;4.70;3.83;;;;;;;10.33;100.00;99398.28;5050938;28;20221;-68
2023/10/22 04:40:42;;;;;;;4.73;4.23;;;;;;;10.33;100.00;99390.56;5050804;28;20237;-66
2023/10/22 04:43:09;;;;;;;4.40;4.00;;;;;;;10.34;100.00;99383.69;5050538;28;20233;-67
2023/10/22 04:45:37;;;;;;;3.90;3.37;;;;;;;10.39;100.00;99385.28;5050945;28;20202;-66
2023/10/22 04:48:06;;;;;;;3.43;3.13;;;;;;;10.45;100.00;99393.75;5051152;28;20209;-65
2023/10/22 04:50:34;;;;;;;3.83;3.17;;;;;;;10.47;100.00;99398.00;5050845;28;20665;-70
2023/10/22 04:53:03;;;;;;;3.37;3.07;;;;;;;10.50;100.00;99392.78;5051019;28;20206;-66
2023/10/22 04:55:31;;;;;;;3.83;3.07;;;;;;;10.53;100.00;99392.72;5050551;28;20219;-67
2023/10/22 04:58:00;;;;;;;4.27;3.30;;;;;;;10.55;100.00;99390.94;5050819;28;20209;-66
2023/10/22 05:00:28;;;;;;;3.20;2.90;;;;;;;10.61;100.00;99398.56;5054503;28;20216;-65
2023/10/22 05:02:56;;;;;;;3.73;2.83;;;;;;;10.63;100.00;99394.19;5054409;28;20209;-65
2023/10/22 05:05:24;;;;;;;2.90;2.67;;;;;;;10.67;100.00;99391.56;5054746;28;20205;-66
2023/10/22 05:07:52;;;;;;;2.93;2.57;;;;;;;10.68;100.00;99390.66;5054429;28;20238;-66
2023/10/22 05:10:22;;;;;;;2.50;2.30;;;;;;;10.71;100.00;99390.59;5053095;28;20202;-67
2023/10/22 05:12:50;;;;;;;2.70;2.27;;;;;;;10.71;100.00;99377.72;5059127;28;20228;-68
2023/10/22 05:15:18;;;;;;;2.63;2.40;;;;;;;10.70;100.00;99382.03;5052463;28;20237;-67
2023/10/22 05:17:47;;;;;;;2.40;2.13;;;;;;;10.72;100.00;99374.28;5054194;28;20217;-67
2023/10/22 05:20:15;;;;;;;3.77;2.30;;;;;;;10.72;100.00;99377.69;5054781;28;20206;-66
2023/10/22 05:22:44;;;;;;;2.20;2.10;;;;;;;10.72;100.00;99371.72;5054321;28;20284;-67
2023/10/22 05:25:12;;;;;;;2.40;2.20;;;;;;;10.74;100.00;99372.50;5054297;28;20201;-66
2023/10/22 05:27:42;;;;;;;2.60;2.40;;;;;;;10.74;100.00;99369.91;5052816;28;20210;-66
2023/10/22 05:30:11;;;;;;;3.03;2.17;;;;;;;10.73;100.00;99376.81;5062067;28;20232;-70
2023/10/22 05:32:38;;;;;;;3.27;2.10;;;;;;;10.75;100.00;99382.78;5054044;28;20248;-68
2023/10/22 05:35:07;;;;;;;2.50;2.30;;;;;;;10.77;100.00;99372.44;5054282;28;20206;-69
2023/10/22 05:37:35;;;;;;;2.50;2.30;;;;;;;10.76;100.00;99368.16;5053974;28;20198;-67
2023/10/22 05:40:04;;;;;;;1.87;1.77;;;;;;;10.77;100.00;99370.69;5054006;28;20236;-64
2023/10/22 05:42:34;;;;;;;1.83;1.70;;;;;;;10.76;100.00;99369.00;5054054;28;20661;-65
2023/10/22 05:45:04;;;;;;;1.73;1.63;;;;;;;10.76;100.00;99363.88;5053964;28;20212;-65
2023/10/22 05:47:32;;;;;;;2.40;1.70;;;;;;;10.75;100.00;99361.31;5053893;28;20198;-67
2023/10/22 05:50:00;;;;;;;2.47;1.30;;;;;;;10.76;100.00;99365.59;5052783;28;20736;-66
2023/10/22 05:52:28;;;;;;;2.17;1.97;;;;;;;10.74;100.00;99359.63;5054509;28;20230;-64
2023/10/22 05:54:56;;;;;;;1.80;1.70;;;;;;;10.74;100.00;99363.03;5053514;28;20597;-64
2023/10/22 05:57:28;;;;;;;2.07;1.63;;;;;;;10.76;100.00;99358.72;5053537;28;20210;-64
2023/10/22 05:59:58;;;;;;;2.37;1.63;;;;;;;10.78;100.00;99356.09;5053585;28;20202;-63
2023/10/22 06:02:27;;;;;;;2.27;1.80;;;;;;;10.77;100.00;99356.97;5053915;28;20256;-68
2023/10/22 06:04:55;;;;;;;1.40;1.30;;;;;;;10.77;100.00;99346.66;5053858;28;20284;-67
2023/10/22 06:07:24;;;;;;;1.80;1.70;;;;;;;10.78;100.00;99348.34;5053661;28;20228;-68
2023/10/22 06:09:55;;;;;;;1.80;1.70;;;;;;;10.83;100.00;99349.13;5052734;28;20304;-67
2023/10/22 06:12:23;;;;;;;1.93;1.73;;;;;;;10.81;100.00;99343.13;5060256;28;20704;-68
2023/10/22 06:14:51;;;;;;;1.73;1.60;;;;;;;10.82;100.00;99337.94;5053176;28;20599;-67
2023/10/22 06:17:20;;;;;;;2.97;1.80;;;;;;;10.85;100.00;99344.75;5053595;28;20547;-68
2023/10/22 06:19:49;;;;;;;1.93;1.83;;;;;;;10.86;100.00;99343.84;5053534;28;20263;-67
2023/10/22 06:22:17;;;;;;;2.10;1.87;;;;;;;10.86;100.00;99342.16;5053342;28;20210;-68
2023/10/22 06:24:45;;;;;;;2.77;1.87;;;;;;;10.88;100.00;99342.09;5053363;28;20209;-70
2023/10/22 06:27:16;;;;;;;2.00;1.90;;;;;;;10.89;100.00;99343.78;5052666;28;20225;-67
2023/10/22 06:29:47;;;;;;;2.00;1.90;;;;;;;10.86;100.00;99333.53;5053448;28;20224;-67
2023/10/22 06:32:16;;;;;;;1.90;1.80;;;;;;;10.89;100.00;99330.91;5053276;28;20746;-67
2023/10/22 06:34:44;;;;;;;2.97;1.90;;;;;;;10.89;100.00;99328.31;5053229;28;20665;-67
2023/10/22 06:37:13;;;;;;;3.70;2.20;;;;;;;10.89;100.00;99318.00;5052842;28;20285;-67
2023/10/22 06:39:41;;;;;;;3.30;2.10;;;;;;;10.94;100.00;99323.91;5052799;28;20214;-69
2023/10/22 06:42:09;;;;;;;2.30;2.10;;;;;;;10.97;100.00;99316.13;5053057;28;20670;-68
2023/10/22 06:44:42;;;;;;;2.37;2.17;;;;;;;11.00;100.00;99310.84;5052776;28;20209;-68
2023/10/22 06:47:10;;;;;;;3.53;2.33;;;;;;;11.04;100.00;99303.91;5052992;28;20284;-68
2023/10/22 06:49:38;;;;;;;2.23;2.03;;;;;;;11.08;100.00;99303.81;5052534;28;20558;-67
2023/10/22 06:52:06;;;;;;;2.70;2.50;;;;;;;11.11;100.00;99305.44;5052792;28;20644;-68
2023/10/22 06:54:35;;;;;;;2.37;2.17;;;;;;;11.13;100.00;99307.09;5053027;28;20202;-67
2023/10/22 06:57:04;;;;;;;2.97;2.30;;;;;;;11.15;100.00;99293.31;5052906;28;20220;-69
2023/10/22 06:59:32;;;;;;;3.87;2.10;;;;;;;11.15;100.00;99285.56;5052750;28;20198;-67
2023/10/22 07:02:00;;;;;;;2.83;2.30;;;;;;;11.15;100.00;99265.78;5052832;28;20259;-66
2023/10/22 07:04:28;;;;;;;2.10;1.97;;;;;;;11.16;100.00;99264.06;5052396;28;20210;-68
2023/10/22 07:06:56;;;;;;;1.53;1.43;;;;;;;11.17;100.00;99247.72;5052770;28;20619;-68
2023/10/22 07:09:24;;;;;;;1.60;1.50;;;;;;;11.20;100.00;99251.06;5052235;28;20202;-68
2023/10/22 07:11:53;;;;;;;1.40;1.30;;;;;;;11.22;100.00;99246.69;5052590;28;20202;-68
2023/10/22 07:14:21;;;;;;;1.57;1.40;;;;;;;11.23;100.00;99255.28;5052137;28;20704;-67
2023/10/22 07:16:50;;;;;;;1.80;1.70;;;;;;;11.23;100.00;99239.81;5052491;28;20209;-67
2023/10/22 07:19:18;;;;;;;2.00;1.63;;;;;;;11.26;100.00;99250.03;5052470;28;20657;-68
2023/10/22 07:21:47;;;;;;;2.33;1.87;;;;;;;11.23;100.00;99250.13;5050895;28;20589;-67
2023/10/22 07:24:17;;;;;;;2.20;2.00;;;;;;;11.20;100.00;99234.75;5052021;28;20233;-68
2023/10/22 07:26:45;;;;;;;1.93;1.70;;;;;;;11.18;100.00;99229.63;5052243;28;20210;-68
2023/10/22 07:29:15;;;;;;;2.60;2.27;;;;;;;11.15;100.00;99229.69;5051885;28;20216;-66
2023/10/22 07:31:43;;;;;;;2.23;2.03;;;;;;;11.14;100.00;99230.59;5051802;28;20558;-67
2023/10/22 07:34:12;;;;;;;2.47;2.17;;;;;;;11.13;100.00;99227.16;5051753;28;20248;-69
2023/10/22 07:36:40;;;;;;;2.47;2.03;;;;;;;11.18;100.00;99215.88;5051709;28;20251;-68
2023/10/22 07:39:08;;;;;;;2.00;1.90;;;;;;;11.18;100.00;99210.72;5051718;28;20233;-67
2023/10/22 07:41:37;;;;;;;2.33;2.13;;;;;;;11.18;100.00;99221.88;5051990;28;20268;-68
2023/10/22 07:44:06;;;;;;;2.37;2.17;;;;;;;11.18;100.00;99221.03;5052193;28;20665;-69
2023/10/22 07:46:36;;;;;;;3.07;2.20;;;;;;;11.13;100.00;99205.72;5052071;28;20201;-66
2023/10/22 07:49:04;;;;;;;2.27;2.07;;;;;;;11.15;100.00;99221.13;5051593;28;20206;-67
2023/10/22 07:51:33;;;;;;;2.23;2.00;;;;;;;11.15;100.00;99223.69;5058706;28;20288;-68
2023/10/22 07:54:01;;;;;;;2.50;2.10;;;;;;;11.14;100.00;99228.00;5055694;28;20218;-68
2023/10/22 07:56:30;;;;;;;1.90;1.80;;;;;;;11.13;100.00;99226.34;5051657;28;20566;-68
2023/10/22 07:58:58;;;;;;;1.97;1.77;;;;;;;11.12;100.00;99216.91;5051249;28;20233;-68
2023/10/22 08:01:26;;;;;;;2.27;1.80;;;;;;;11.13;100.00;99228.91;5051762;28;20541;-68
2023/10/22 08:03:59;;;;;;;1.87;1.77;;;;;;;11.11;100.00;99218.63;5051713;28;20224;-67
2023/10/22 08:06:27;;;;;;;2.17;2.07;;;;;;;11.11;100.00;99225.50;5038106;28;20679;-67
2023/10/22 08:08:56;;;;;;;2.93;2.17;;;;;;;11.11;100.00;99221.19;5051874;28;20567;-68
2023/10/22 08:11:24;;;;;;;3.50;1.90;;;;;;;11.11;100.00;99221.19;5051736;28;20210;-67
2023/10/22 08:13:52;;;;;;;2.40;2.20;;;;;;;11.09;100.00;99215.25;5051287;28;20242;-70
2023/10/22 08:16:20;;;;;;;2.30;2.10;;;;;;;11.07;100.00;99211.84;5051197;28;20664;-69
2023/10/22 08:18:49;;;;;;;2.30;2.10;;;;;;;11.08;100.00;99211.00;5051529;28;20206;-69
2023/10/22 08:21:19;;;;;;;2.20;2.00;;;;;;;11.07;100.00;99206.69;5051067;28;20627;-68
2023/10/22 08:23:47;;;;;;;2.00;1.80;;;;;;;11.08;100.00;99205.84;5050882;28;20713;-69
2023/10/22 08:26:16;;;;;;;2.63;1.93;;;;;;;11.07;100.00;99200.72;5052923;28;20205;-67
2023/10/22 08:28:45;;;;;;;2.50;2.17;;;;;;;11.07;100.00;99203.28;5051268;28;20232;-68
2023/10/22 08:31:16;;;;;;;2.57;2.10;;;;;;;11.08;100.00;99204.97;5050997;28;20206;-69
2023/10/22 08:33:45;;;;;;;2.47;2.13;;;;;;;11.07;100.00;99193.81;5050485;28;20221;-68
2023/10/22 08:36:18;;;;;;;2.30;2.07;;;;;;;11.07;100.00;99187.81;5066070;28;20233;-64
2023/10/22 08:38:47;;;;;;;2.20;2.00;;;;;;;11.07;100.00;99182.66;5051211;28;20687;-66
2023/10/22 08:41:22;;;;;;;2.50;2.30;;;;;;;11.09;100.00;99192.06;5050936;28;20220;-65
2023/10/22 08:43:50;;;;;;;2.77;2.30;;;;;;;11.09;100.00;99186.91;5050598;28;20205;-65
2023/10/22 08:46:19;;;;;;;2.50;2.30;;;;;;;11.08;100.00;99176.59;5050752;28;20225;-66
2023/10/22 08:48:48;;;;;;;2.83;2.60;;;;;;;11.12;100.00;99186.81;5050894;28;20365;-65
2023/10/22 08:51:22;;;;;;;3.03;2.50;;;;;;;11.12;100.00;99179.09;5051639;28;20209;-66
2023/10/22 08:53:50;;;;;;;3.00;2.67;;;;;;;11.14;100.00;99189.34;5050876;28;20312;-66
2023/10/22 08:56:19;;;;;;;3.13;2.80;;;;;;;11.16;100.00;99186.72;5050903;28;20201;-64
2023/10/22 08:58:48;;;;;;;2.70;2.50;;;;;;;11.15;100.00;99180.72;5051226;28;20210;-64
2023/10/22 09:01:17;;;;;;;3.40;2.97;;;;;;;11.15;100.00;99179.88;5050695;28;20201;-66
2023/10/22 09:03:46;;;;;;;3.03;2.70;;;;;;;11.21;100.00;99184.88;5051248;28;20206;-67
2023/10/22 09:06:19;;;;;;;3.30;2.97;;;;;;;11.23;100.00;99177.91;5050979;28;20202;-68
2023/10/22 09:08:48;;;;;;;4.40;3.10;;;;;;;11.23;100.00;99177.91;5051110;28;20205;-67
2023/10/22 09:11:17;;;;;;;3.80;3.17;;;;;;;11.24;100.00;99171.88;5051176;28;20232;-65
2023/10/22 09:13:49;;;;;;;3.47;3.10;;;;;;;11.24;100.00;99177.06;5050521;28;20236;-68
2023/10/22 09:16:33;;;;;;;4.63;3.60;;;;;;;11.25;100.00;99171.84;5050711;28;20256;-66
2023/10/22 09:19:03;;;;;;;3.77;3.13;;;;;;;11.24;100.00;99159.84;5049674;28;20201;-68
2023/10/22 09:21:46;;;;;;;4.40;3.37;;;;;;;11.22;100.00;99145.28;5054607;28;20197;-69
2023/10/22 09:24:15;;;;;;;5.83;3.47;;;;;;;11.27;100.00;99159.75;5058501;28;20324;-69
2023/10/22 09:26:46;;;;;;;4.40;3.63;;;;;;;11.30;100.00;99153.66;5050821;28;20661;-69
2023/10/22 09:29:18;;;;;;;3.17;2.90;;;;;;;11.35;100.00;99149.22;5051143;28;20248;-70
2023/10/22 09:31:51;;;;;;;3.67;3.13;;;;;;;11.35;100.00;99132.00;5050872;28;20653;-65
2023/10/22 09:34:26;;;;;;;3.60;3.03;;;;;;;11.41;100.00;99133.53;5051290;28;20614;-66
2023/10/22 09:36:57;;;;;;;3.47;3.10;;;;;;;11.45;100.00;99129.13;5050767;28;20210;-68
2023/10/22 09:39:37;;;;;;;4.50;3.40;;;;;;;11.49;100.00;99133.34;5051092;28;20208;-66
2023/10/22 09:42:08;;;;;;;5.27;3.37;;;;;;;11.51;100.00;99126.38;5050592;28;20233;-65
2023/10/22 09:44:45;;;;;;;3.67;3.30;;;;;;;11.47;100.00;99129.94;5051487;28;20209;-66
2023/10/22 09:47:23;;;;;;;4.13;3.73;;;;;;;11.49;100.00;99126.44;5050922;28;20203;-64
2023/10/22 09:50:03;;;;;;;3.50;3.20;;;;;;;11.48;100.00;99119.56;5046997;28;20724;-67
2023/10/22 09:52:43;;;;;;;4.00;3.53;;;;;;;11.48;100.00;99121.31;5045430;28;20206;-65
2023/10/22 09:55:35;;;;;;;4.33;3.93;;;;;;;11.52;100.00;99122.91;5052612;28;20244;-66
2023/10/22 09:58:09;;;;;;;4.37;3.60;;;;;;;11.56;100.00;99129.66;5058368;28;20204;-65
2023/10/22 10:00:37;;;;;;;3.87;3.30;;;;;;;11.57;100.00;99121.06;5058442;28;20205;-68
2023/10/22 10:03:21;;;;;;;3.97;3.30;;;;;;;11.55;100.00;99113.34;5049825;28;20205;-70
2023/10/22 10:05:51;;;;;;;5.27;3.57;;;;;;;11.61;100.00;99123.47;5057176;28;20543;-69
2023/10/22 10:08:22;;;;;;;3.63;3.33;;;;;;;11.57;100.00;99109.00;5039952;28;20263;-68
2023/10/22 10:10:51;;;;;;;3.67;3.37;;;;;;;11.57;100.00;99105.56;5047418;28;20206;-67
2023/10/22 10:13:21;;;;;;;3.90;3.50;;;;;;;11.53;100.00;99083.34;5053310;28;20236;-72
2023/10/22 10:16:01;;;;;;;3.83;3.43;;;;;;;11.63;100.00;99089.03;5048599;28;20215;-66
2023/10/22 10:19:03;;;;;;;4.93;3.67;;;;;;;11.68;100.00;99089.75;5044833;28;20216;-68
2023/10/22 10:21:44;;;;;;;4.47;3.63;;;;;;;11.69;100.00;99091.44;5053053;28;20259;-66
2023/10/22 10:24:25;;;;;;;4.53;4.03;;;;;;;11.67;100.00;99080.31;5050386;28;20563;-70
2023/10/22 10:27:11;;;;;;;5.27;3.90;;;;;;;11.67;100.00;99080.31;5051698;28;20312;-67
2023/10/22 10:29:43;;;;;;;3.90;3.50;;;;;;;11.70;100.00;99077.63;5055241;28;20213;-67
2023/10/22 10:32:27;;;;;;;5.00;3.50;;;;;;;11.64;100.00;99059.78;5055951;28;20256;-66
2023/10/22 10:35:02;;;;;;;5.33;4.37;;;;;;;11.67;100.00;99076.03;5050500;28;20588;-68
2023/10/22 10:37:31;;;;;;;4.30;3.90;;;;;;;11.73;100.00;99074.97;5051575;28;20200;-66
2023/10/22 10:40:06;;;;;;;6.47;3.80;;;;;;;11.76;100.00;99074.88;5051801;28;20214;-65
2023/10/22 10:42:52;;;;;;;4.90;3.63;;;;;;;11.78;100.00;99073.06;5043961;28;20613;-64
2023/10/22 10:45:21;;;;;;;4.13;3.37;;;;;;;11.78;100.00;99073.06;5042236;28;20202;-66
2023/10/22 10:47:52;;;;;;;4.50;3.50;;;;;;;11.77;100.00;99066.22;5052728;28;20256;-69
2023/10/22 10:50:20;;;;;;;4.13;3.40;;;;;;;11.81;100.00;99065.22;5059677;28;20214;-64
2023/10/22 10:52:59;;;;;;;6.00;3.90;;;;;;;11.83;100.00;99059.16;5045900;28;20210;-65
2023/10/22 10:55:37;;;;;;;4.30;3.60;;;;;;;11.87;100.00;99053.91;5043976;28;20221;-67
2023/10/22 10:58:06;;;;;;;3.83;3.53;;;;;;;11.90;100.00;99054.66;5053246;28;20204;-64
2023/10/22 11:00:35;;;;;;;5.20;3.97;;;;;;;11.93;100.00;99054.56;5052216;28;20742;-67
2023/10/22 11:03:22;;;;;;;4.43;3.83;;;;;;;11.97;100.00;99052.72;5051504;28;20247;-65
2023/10/22 11:05:52;;;;;;;5.63;3.67;;;;;;;12.00;100.00;99055.19;5067909;28;20576;-66
2023/10/22 11:08:24;;;;;;;4.47;3.47;;;;;;;12.02;100.00;99046.50;5056703;28;20202;-66
2023/10/22 11:10:54;;;;;;;6.47;3.80;;;;;;;12.07;100.00;99043.75;5063942;28;20216;-66
2023/10/22 11:13:27;;;;;;;4.17;3.60;;;;;;;12.13;100.00;99051.31;5043568;28;20206;-64
2023/10/22 11:16:06;;;;;;;5.00;3.87;;;;;;;12.16;100.00;99055.53;5054832;28;20240;-67
2023/10/22 11:18:53;;;;;;;5.67;3.50;;;;;;;12.15;100.00;99046.06;5057499;28;20202;-65
2023/10/22 11:21:21;;;;;;;4.30;3.90;;;;;;;12.17;99.75;99054.63;5053720;28;20209;-65
2023/10/22 11:23:50;;;;;;;5.27;3.97;;;;;;;12.19;100.00;99050.25;5061548;28;20226;-64
2023/10/22 11:26:20;;;;;;;6.03;3.90;;;;;;;12.22;99.90;99048.38;5047435;28;20240;-65
2023/10/22 11:28:49;;;;;;;4.17;3.77;;;;;;;12.28;99.73;99047.34;5044083;28;20198;-66
2023/10/22 11:31:24;;;;;;;4.50;4.10;;;;;;;12.31;99.76;99035.19;5051965;28;20671;-68
2023/10/22 11:33:54;;;;;;;4.97;3.60;;;;;;;12.37;99.46;99041.88;5048485;28;20197;-67